createdAt,value
2022-08-23T00:00:13.151Z,61.24
2022-08-23T00:01:08.675Z,61.14
2022-08-23T00:02:08.310Z,61.04
2022-08-23T00:03:09.446Z,60.94
2022-08-23T00:04:08.430Z,61.74
2022-08-23T00:05:10.016Z,61.04
2022-08-23T00:06:08.359Z,61.14
2022-08-23T00:07:08.550Z,61.44
2022-08-23T00:08:08.582Z,61.34
2022-08-23T00:09:08.666Z,61.44
2022-08-23T00:10:08.692Z,61.24
2022-08-23T00:11:08.741Z,61.34
2022-08-23T00:12:08.777Z,61.84
2022-08-23T00:13:08.891Z,62.04
2022-08-23T00:14:08.933Z,61.87
2022-08-23T00:15:08.970Z,61.87
2022-08-23T00:16:08.127Z,62.07
2022-08-23T00:17:08.155Z,62.07
2022-08-23T00:18:08.217Z,62.07
2022-08-23T00:19:08.273Z,62.27
2022-08-23T00:20:08.492Z,62.60
2022-08-23T00:21:08.347Z,62.30
2022-08-23T00:22:08.734Z,62.40
2022-08-23T00:23:08.785Z,62.50
2022-08-23T00:24:08.814Z,62.40
2022-08-23T00:25:08.856Z,62.50
2022-08-23T00:26:08.892Z,62.50
2022-08-23T00:27:08.955Z,62.80
2022-08-23T00:28:13.659Z,62.80
2022-08-23T00:29:09.031Z,62.70
2022-08-23T00:30:09.102Z,62.50
2022-08-23T00:31:08.122Z,62.50
2022-08-23T00:32:08.156Z,62.70
2022-08-23T00:33:08.225Z,62.60
2022-08-23T00:34:09.299Z,62.60
2022-08-23T00:35:08.284Z,62.50
2022-08-23T00:36:08.376Z,62.30
2022-08-23T00:37:08.388Z,62.50
2022-08-23T00:38:33.014Z,62.50
2022-08-23T00:39:09.468Z,62.60
2022-08-23T00:40:08.569Z,62.60
2022-08-23T00:41:08.578Z,62.50
2022-08-23T00:42:08.461Z,62.40
2022-08-23T00:43:08.498Z,62.43
2022-08-23T00:44:08.560Z,62.43
2022-08-23T00:45:08.612Z,62.53
2022-08-23T00:46:08.674Z,62.73
2022-08-23T00:47:08.730Z,63.03
2022-08-23T00:48:08.152Z,63.23
2022-08-23T00:49:08.170Z,63.43
2022-08-23T00:50:19.212Z,63.67
2022-08-23T00:51:09.250Z,63.76
2022-08-23T00:52:08.333Z,64.07
2022-08-23T00:53:08.359Z,64.07
2022-08-23T00:54:08.423Z,64.47
2022-08-23T00:55:08.468Z,64.37
2022-08-23T00:56:09.572Z,64.50
2022-08-23T00:57:08.587Z,64.50
2022-08-23T00:58:07.603Z,64.50
2022-08-23T00:59:08.670Z,64.80
2022-08-23T01:00:08.725Z,64.80
2022-08-23T01:01:07.536Z,64.80
2022-08-23T01:02:07.705Z,64.90
2022-08-23T01:03:10.731Z,64.90
2022-08-23T01:04:07.669Z,64.90
2022-08-23T01:05:08.738Z,65.10
2022-08-23T01:06:07.788Z,65.10
2022-08-23T01:07:08.861Z,65.30
2022-08-23T01:08:08.883Z,65.60
2022-08-23T01:09:08.932Z,65.33
2022-08-23T01:10:09.006Z,65.44
2022-08-23T01:11:08.883Z,65.44
2022-08-23T01:12:08.102Z,65.33
2022-08-23T01:13:08.189Z,65.33
2022-08-23T01:14:08.267Z,65.33
2022-08-23T01:15:08.335Z,65.33
2022-08-23T01:16:08.392Z,65.33
2022-08-23T01:17:08.440Z,65.84
2022-08-23T01:18:08.518Z,66.54
2022-08-23T01:19:08.545Z,66.14
2022-08-23T01:20:08.586Z,66.67
2022-08-23T01:21:10.345Z,66.67
2022-08-23T01:22:07.673Z,66.57
2022-08-23T01:23:07.668Z,66.57
2022-08-23T01:24:11.022Z,66.17
2022-08-23T01:25:09.246Z,66.37
2022-08-23T01:26:08.790Z,66.37
2022-08-23T01:27:08.827Z,66.07
2022-08-23T01:28:07.820Z,66.17
2022-08-23T01:29:10.946Z,66.07
2022-08-23T01:30:07.878Z,66.17
2022-08-23T01:31:07.248Z,66.17
2022-08-23T01:32:08.347Z,66.17
2022-08-23T01:33:08.436Z,66.17
2022-08-23T01:34:09.298Z,66.17
2022-08-23T01:35:08.463Z,66.07
2022-08-23T01:36:09.724Z,66.07
2022-08-23T01:37:08.171Z,65.97
2022-08-23T01:38:08.243Z,66.07
2022-08-23T01:39:08.321Z,65.97
2022-08-23T01:40:08.427Z,65.87
2022-08-23T01:41:07.448Z,65.67
2022-08-23T01:42:08.531Z,65.56
2022-08-23T01:43:07.580Z,65.47
2022-08-23T01:44:08.714Z,65.03
2022-08-23T01:45:07.772Z,64.96
2022-08-23T01:46:08.970Z,65.06
2022-08-23T01:47:08.159Z,65.03
2022-08-23T01:48:08.216Z,64.93
2022-08-23T01:49:08.640Z,64.93
2022-08-23T01:50:08.424Z,65.03
2022-08-23T01:51:07.421Z,64.83
2022-08-23T01:52:08.598Z,64.83
2022-08-23T01:53:08.630Z,64.73
2022-08-23T01:54:07.680Z,64.63
2022-08-23T01:55:07.774Z,64.53
2022-08-23T01:56:08.282Z,64.43
2022-08-23T01:57:08.364Z,64.43
2022-08-23T01:58:08.440Z,64.53
2022-08-23T01:59:08.486Z,64.63
2022-08-23T02:00:07.794Z,64.83
2022-08-23T02:01:07.874Z,64.93
2022-08-23T02:02:09.042Z,65.13
2022-08-23T02:03:10.913Z,65.44
2022-08-23T02:04:07.871Z,65.23
2022-08-23T02:05:08.912Z,65.36
2022-08-23T02:06:08.071Z,65.67
2022-08-23T02:07:08.174Z,65.87
2022-08-23T02:08:08.256Z,65.97
2022-08-23T02:09:17.419Z,66.10
2022-08-23T02:10:08.403Z,66.10
2022-08-23T02:11:08.536Z,66.20
2022-08-23T02:12:08.631Z,66.20
2022-08-23T02:13:08.747Z,66.10
2022-08-23T02:14:08.828Z,66.10
2022-08-23T02:15:08.910Z,66.00
2022-08-23T02:16:07.956Z,65.80
2022-08-23T02:17:09.076Z,65.80
2022-08-23T02:18:10.183Z,65.90
2022-08-23T02:19:08.205Z,65.90
2022-08-23T02:20:09.360Z,65.70
2022-08-23T02:22:08.424Z,65.50
2022-08-23T02:23:08.496Z,65.50
2022-08-23T02:24:07.706Z,65.39
2022-08-23T02:25:07.762Z,65.59
2022-08-23T02:26:09.076Z,65.70
2022-08-23T02:27:07.890Z,66.10
2022-08-23T02:28:10.038Z,66.20
2022-08-23T02:29:08.040Z,66.40
2022-08-23T02:30:09.128Z,66.60
2022-08-23T02:31:08.146Z,66.80
2022-08-23T02:32:08.257Z,66.94
2022-08-23T02:33:08.310Z,66.94
2022-08-23T02:34:08.376Z,67.03
2022-08-23T02:35:08.433Z,67.14
2022-08-23T02:36:08.549Z,67.14
2022-08-23T02:37:08.564Z,67.14
2022-08-23T02:38:08.588Z,67.34
2022-08-23T02:39:08.672Z,67.44
2022-08-23T02:40:08.834Z,67.44
2022-08-23T02:41:07.759Z,67.64
2022-08-23T02:42:08.868Z,67.44
2022-08-23T02:43:08.931Z,67.44
2022-08-23T02:44:08.980Z,67.34
2022-08-23T02:45:08.025Z,67.34
2022-08-23T02:46:08.192Z,67.14
2022-08-23T02:47:08.251Z,67.03
2022-08-23T02:48:08.330Z,67.14
2022-08-23T02:49:08.358Z,66.94
2022-08-23T02:50:08.419Z,66.94
2022-08-23T02:51:07.449Z,66.83
2022-08-23T02:52:08.540Z,66.83
2022-08-23T02:53:08.607Z,66.74
2022-08-23T02:54:07.632Z,66.43
2022-08-23T02:55:08.154Z,66.33
2022-08-23T02:56:17.093Z,66.33
2022-08-23T02:57:07.205Z,66.23
2022-08-23T02:58:08.348Z,66.33
2022-08-23T02:59:08.435Z,66.03
2022-08-23T03:00:08.443Z,65.73
2022-08-23T03:01:07.463Z,65.73
2022-08-23T03:02:08.592Z,65.22
2022-08-23T03:03:08.602Z,65.22
2022-08-23T03:04:07.608Z,65.12
2022-08-23T03:05:07.679Z,64.92
2022-08-23T03:06:25.967Z,64.72
2022-08-23T03:07:06.782Z,64.62
2022-08-23T03:08:07.925Z,64.72
2022-08-23T03:09:08.015Z,64.92
2022-08-23T03:10:06.015Z,64.82
2022-08-23T03:11:09.904Z,64.92
2022-08-23T03:12:06.212Z,64.92
2022-08-23T03:13:06.307Z,65.12
2022-08-23T03:14:06.397Z,64.92
2022-08-23T03:15:05.824Z,64.82
2022-08-23T03:16:05.866Z,64.92
2022-08-23T03:17:07.690Z,64.82
2022-08-23T03:18:06.072Z,64.72
2022-08-23T03:19:06.107Z,64.62
2022-08-23T03:20:06.237Z,64.62
2022-08-23T03:21:06.239Z,64.72
2022-08-23T03:22:06.324Z,64.72
2022-08-23T03:23:06.441Z,64.62
2022-08-23T03:24:10.217Z,64.62
2022-08-23T03:25:05.587Z,64.62
2022-08-23T03:26:05.675Z,64.62
2022-08-23T03:27:05.747Z,64.72
2022-08-23T03:28:05.818Z,64.72
2022-08-23T03:29:06.487Z,64.42
2022-08-23T03:30:05.681Z,64.52
2022-08-23T03:31:05.767Z,64.75
2022-08-23T03:32:05.839Z,64.95
2022-08-23T03:33:06.875Z,64.86
2022-08-23T03:34:05.975Z,65.06
2022-08-23T03:35:07.000Z,64.95
2022-08-23T03:36:07.097Z,65.26
2022-08-23T03:37:06.159Z,65.26
2022-08-23T03:38:06.231Z,65.46
2022-08-23T03:39:06.307Z,65.66
2022-08-23T03:40:07.487Z,65.76
2022-08-23T03:41:05.393Z,65.56
2022-08-23T03:42:05.455Z,65.39
2022-08-23T03:43:05.541Z,65.79
2022-08-23T03:44:05.595Z,65.89
2022-08-23T03:45:05.651Z,65.99
2022-08-23T03:46:06.681Z,65.99
2022-08-23T03:47:06.710Z,66.30
2022-08-23T03:48:05.829Z,66.30
2022-08-23T03:49:05.915Z,66.73
2022-08-23T03:50:05.954Z,66.63
2022-08-23T03:51:05.999Z,66.53
2022-08-23T03:52:06.263Z,67.03
2022-08-23T03:53:06.093Z,67.23
2022-08-23T03:54:06.154Z,66.93
2022-08-23T03:55:05.181Z,67.27
2022-08-23T03:56:05.245Z,67.27
2022-08-23T03:57:05.306Z,67.47
2022-08-23T03:58:06.810Z,67.47
2022-08-23T03:59:05.423Z,67.57
2022-08-23T04:00:05.493Z,67.47
2022-08-23T04:01:05.562Z,67.36
2022-08-23T04:02:05.666Z,67.47
2022-08-23T04:03:05.696Z,67.57
2022-08-23T04:04:06.725Z,67.67
2022-08-23T04:05:06.796Z,67.70
2022-08-23T04:06:05.897Z,67.87
2022-08-23T04:07:06.919Z,67.80
2022-08-23T04:08:04.991Z,67.60
2022-08-23T04:09:05.050Z,67.60
2022-08-23T04:10:06.357Z,67.50
2022-08-23T04:11:06.177Z,67.60
2022-08-23T04:12:12.010Z,67.70
2022-08-23T04:13:06.222Z,67.70
2022-08-23T04:14:07.345Z,67.60
2022-08-23T04:15:06.760Z,67.47
2022-08-23T04:16:06.377Z,67.27
2022-08-23T04:17:05.377Z,67.16
2022-08-23T04:18:05.438Z,67.27
2022-08-23T04:19:05.475Z,66.96
2022-08-23T04:20:05.779Z,66.86
2022-08-23T04:21:06.559Z,66.56
2022-08-23T04:22:05.833Z,66.86
2022-08-23T04:23:06.961Z,67.36
2022-08-23T04:24:06.091Z,67.27
2022-08-23T04:25:34.507Z,66.76
2022-08-23T04:26:05.952Z,66.66
2022-08-23T04:27:06.789Z,66.56
2022-08-23T04:28:05.193Z,66.66
2022-08-23T04:29:05.146Z,66.86
2022-08-23T04:30:05.233Z,66.96
2022-08-23T04:31:05.290Z,66.76
2022-08-23T04:32:07.851Z,66.66
2022-08-23T04:33:10.646Z,66.56
2022-08-23T04:34:05.447Z,66.36
2022-08-23T04:35:05.515Z,66.36
2022-08-23T04:36:05.573Z,66.36
2022-08-23T04:37:09.166Z,66.16
2022-08-23T04:38:04.673Z,66.25
2022-08-23T04:39:06.815Z,66.25
2022-08-23T04:40:04.843Z,66.16
2022-08-23T04:41:04.837Z,66.05
2022-08-23T04:42:05.901Z,65.75
2022-08-23T04:43:04.971Z,65.65
2022-08-23T04:44:05.081Z,65.65
2022-08-23T04:45:06.795Z,65.45
2022-08-23T04:46:05.192Z,65.35
2022-08-23T04:47:05.233Z,65.35
2022-08-23T04:48:05.284Z,65.45
2022-08-23T04:49:05.348Z,65.25
2022-08-23T04:50:05.394Z,65.55
2022-08-23T04:51:06.767Z,65.75
2022-08-23T04:52:04.515Z,65.55
2022-08-23T04:53:04.565Z,65.62
2022-08-23T04:54:04.642Z,66.02
2022-08-23T04:55:04.670Z,66.02
2022-08-23T04:56:04.711Z,66.13
2022-08-23T04:57:07.012Z,66.22
2022-08-23T04:58:04.912Z,66.42
2022-08-23T04:59:04.925Z,66.33
2022-08-23T05:00:05.008Z,67.16
2022-08-23T05:01:05.117Z,67.27
2022-08-23T05:02:05.090Z,67.57
2022-08-23T05:03:09.054Z,67.77
2022-08-23T05:04:05.320Z,67.77
2022-08-23T05:05:04.226Z,67.67
2022-08-23T05:06:05.272Z,67.67
2022-08-23T05:07:04.334Z,67.67
2022-08-23T05:08:04.409Z,68.01
2022-08-23T05:09:07.218Z,68.07
2022-08-23T05:10:04.549Z,67.57
2022-08-23T05:11:04.598Z,68.27
2022-08-23T05:12:04.659Z,67.87
2022-08-23T05:13:04.728Z,67.57
2022-08-23T05:14:04.799Z,67.36
2022-08-23T05:15:12.531Z,67.57
2022-08-23T05:16:04.953Z,67.07
2022-08-23T05:17:05.794Z,67.07
2022-08-23T05:18:05.087Z,66.86
2022-08-23T05:19:04.096Z,66.96
2022-08-23T05:20:04.155Z,66.76
2022-08-23T05:21:04.240Z,66.76
2022-08-23T05:22:04.290Z,66.86
2022-08-23T05:23:04.340Z,66.46
2022-08-23T05:24:04.389Z,66.66
2022-08-23T05:25:04.462Z,66.76
2022-08-23T05:26:06.331Z,66.56
2022-08-23T05:27:04.604Z,66.83
2022-08-23T05:28:06.641Z,66.33
2022-08-23T05:29:04.768Z,66.33
2022-08-23T05:30:04.843Z,66.13
2022-08-23T05:31:03.893Z,66.02
2022-08-23T05:32:04.042Z,65.92
2022-08-23T05:33:04.033Z,65.72
2022-08-23T05:34:04.124Z,65.72
2022-08-23T05:35:04.210Z,65.82
2022-08-23T05:36:04.272Z,65.72
2022-08-23T05:37:06.395Z,65.82
2022-08-23T05:38:04.414Z,65.69
2022-08-23T05:39:04.461Z,65.69
2022-08-23T05:40:04.584Z,65.59
2022-08-23T05:41:05.397Z,65.49
2022-08-23T05:42:04.634Z,65.79
2022-08-23T05:43:06.282Z,65.89
2022-08-23T05:44:03.684Z,66.19
2022-08-23T05:45:06.125Z,66.09
2022-08-23T05:46:03.847Z,66.09
2022-08-23T05:47:03.885Z,66.09
2022-08-23T05:48:04.961Z,65.99
2022-08-23T05:49:04.064Z,65.89
2022-08-23T05:50:04.088Z,65.79
2022-08-23T05:51:04.137Z,65.69
2022-08-23T05:52:04.200Z,65.86
2022-08-23T05:53:04.259Z,65.66
2022-08-23T05:54:04.315Z,66.06
2022-08-23T05:55:06.231Z,65.86
2022-08-23T05:56:04.418Z,65.96
2022-08-23T05:57:04.473Z,65.96
2022-08-23T05:58:03.517Z,65.96
2022-08-23T05:59:03.605Z,66.06
2022-08-23T06:00:03.698Z,65.96
2022-08-23T06:01:03.736Z,66.06
2022-08-23T06:02:03.753Z,66.47
2022-08-23T06:03:03.842Z,66.36
2022-08-23T06:04:03.915Z,66.47
2022-08-23T06:05:03.949Z,66.27
2022-08-23T06:06:04.005Z,66.06
2022-08-23T06:07:04.064Z,65.96
2022-08-23T06:08:04.111Z,66.06
2022-08-23T06:09:04.170Z,65.73
2022-08-23T06:10:04.224Z,65.53
2022-08-23T06:11:04.284Z,66.03
2022-08-23T06:12:04.339Z,66.13
2022-08-23T06:13:03.360Z,66.23
2022-08-23T06:14:03.460Z,66.13
2022-08-23T06:15:03.479Z,65.83
2022-08-23T06:16:14.944Z,65.83
2022-08-23T06:17:04.600Z,66.23
2022-08-23T06:18:03.661Z,66.10
2022-08-23T06:19:03.742Z,65.80
2022-08-23T06:20:03.824Z,65.90
2022-08-23T06:21:03.898Z,65.80
2022-08-23T06:22:03.929Z,65.50
2022-08-23T06:23:03.963Z,65.50
2022-08-23T06:24:04.003Z,65.59
2022-08-23T06:25:06.276Z,65.26
2022-08-23T06:26:06.362Z,65.47
2022-08-23T06:27:03.101Z,65.36
2022-08-23T06:28:03.264Z,64.86
2022-08-23T06:29:03.250Z,65.36
2022-08-23T06:30:03.304Z,65.47
2022-08-23T06:31:03.412Z,65.23
2022-08-23T06:32:03.649Z,65.33
2022-08-23T06:33:08.702Z,64.93
2022-08-23T06:34:03.617Z,64.73
2022-08-23T06:35:36.824Z,64.33
2022-08-23T06:36:05.628Z,64.23
2022-08-23T06:37:03.721Z,64.23
2022-08-23T06:38:04.670Z,64.50
2022-08-23T06:39:03.843Z,64.20
2022-08-23T06:40:03.936Z,63.90
2022-08-23T06:41:03.931Z,63.59
2022-08-23T06:42:10.113Z,63.09
2022-08-23T06:43:04.075Z,63.17
2022-08-23T06:44:05.028Z,61.96
2022-08-23T06:45:03.128Z,62.76
2022-08-23T06:46:03.184Z,61.96
2022-08-23T06:47:04.236Z,61.63
2022-08-23T06:48:03.483Z,61.22
2022-08-23T06:49:03.356Z,61.72
2022-08-23T06:50:03.406Z,61.93
2022-08-23T06:51:03.461Z,61.10
2022-08-23T06:52:03.497Z,60.80
2022-08-23T06:53:06.858Z,60.19
2022-08-23T06:54:03.628Z,60.39
2022-08-23T06:55:03.703Z,60.39
2022-08-23T06:56:03.718Z,59.59
2022-08-23T06:57:02.739Z,59.56
2022-08-23T06:58:02.795Z,58.66
2022-08-23T06:59:02.860Z,58.06
2022-08-23T07:00:02.936Z,58.86
2022-08-23T07:01:03.009Z,58.94
2022-08-23T07:02:04.243Z,59.13
2022-08-23T07:03:03.402Z,58.73
2022-08-23T07:04:03.127Z,58.53
2022-08-23T07:05:03.186Z,58.13
2022-08-23T07:06:03.240Z,57.50
2022-08-23T07:07:03.297Z,57.60
2022-08-23T07:08:03.335Z,57.70
2022-08-23T07:09:03.385Z,57.50
2022-08-23T07:10:03.448Z,57.70
2022-08-23T07:11:03.580Z,57.20
2022-08-23T07:12:03.520Z,57.17
2022-08-23T07:13:02.527Z,57.68
2022-08-23T07:14:02.559Z,56.57
2022-08-23T07:15:02.623Z,56.77
2022-08-23T07:16:03.679Z,56.77
2022-08-23T07:17:02.733Z,57.48
2022-08-23T07:18:02.753Z,58.18
2022-08-23T07:19:02.789Z,57.78
2022-08-23T07:20:02.823Z,56.85
2022-08-23T07:21:02.882Z,56.85
2022-08-23T07:22:02.920Z,56.45
2022-08-23T07:23:03.106Z,55.94
2022-08-23T07:24:03.008Z,55.65
2022-08-23T07:25:03.034Z,55.42
2022-08-23T07:26:03.147Z,55.82
2022-08-23T07:27:04.057Z,55.62
2022-08-23T07:28:03.155Z,56.12
2022-08-23T07:29:03.189Z,54.82
2022-08-23T07:30:03.211Z,55.22
2022-08-23T07:31:03.297Z,55.92
2022-08-23T07:32:03.302Z,56.72
2022-08-23T07:33:02.429Z,54.99
2022-08-23T07:34:02.343Z,55.69
2022-08-23T07:35:02.365Z,55.79
2022-08-23T07:36:03.444Z,55.49
2022-08-23T07:37:02.443Z,55.66
2022-08-23T07:38:02.560Z,55.36
2022-08-23T07:39:02.466Z,55.17
2022-08-23T07:40:02.587Z,53.97
2022-08-23T07:41:02.525Z,53.87
2022-08-23T07:42:02.570Z,53.77
2022-08-23T07:43:03.628Z,54.17
2022-08-23T07:44:02.832Z,54.84
2022-08-23T07:45:02.689Z,53.64
2022-08-23T07:46:04.269Z,53.54
2022-08-23T07:47:02.767Z,53.54
2022-08-23T07:48:03.075Z,53.54
2022-08-23T07:49:02.831Z,53.74
2022-08-23T07:50:02.887Z,53.44
2022-08-23T07:51:02.952Z,53.61
2022-08-23T07:52:02.968Z,53.12
2022-08-23T07:53:03.031Z,53.42
2022-08-23T07:54:02.047Z,54.02
2022-08-23T07:55:02.051Z,53.42
2022-08-23T07:56:03.190Z,53.39
2022-08-23T07:57:02.458Z,53.49
2022-08-23T07:58:02.377Z,53.89
2022-08-23T07:59:02.189Z,53.09
2022-08-23T08:00:02.233Z,53.69
2022-08-23T08:01:02.292Z,52.89
2022-08-23T08:02:02.327Z,53.49
2022-08-23T08:03:02.458Z,53.06
2022-08-23T08:04:02.360Z,51.87
2022-08-23T08:05:02.383Z,52.57
2022-08-23T08:06:03.373Z,52.37
2022-08-23T08:07:18.735Z,52.07
2022-08-23T08:08:03.514Z,52.57
2022-08-23T08:09:02.519Z,52.76
2022-08-23T08:10:02.542Z,52.74
2022-08-23T08:11:02.560Z,52.25
2022-08-23T08:12:02.581Z,51.75
2022-08-23T08:13:02.592Z,51.84
2022-08-23T08:14:02.650Z,52.55
2022-08-23T08:15:02.630Z,52.55
2022-08-23T08:16:02.704Z,52.74
2022-08-23T08:17:02.704Z,52.14
2022-08-23T08:18:01.888Z,51.84
2022-08-23T08:19:01.723Z,51.84
2022-08-23T08:20:01.767Z,52.27
2022-08-23T08:21:01.761Z,51.87
2022-08-23T08:22:01.820Z,52.47
2022-08-23T08:23:01.829Z,52.27
2022-08-23T08:24:01.856Z,51.67
2022-08-23T08:25:03.042Z,52.27
2022-08-23T08:26:01.905Z,52.14
2022-08-23T08:27:01.970Z,53.14
2022-08-23T08:28:02.178Z,53.34
2022-08-23T08:29:01.999Z,53.24
2022-08-23T08:30:02.003Z,53.04
2022-08-23T08:31:02.092Z,53.31
2022-08-23T08:32:02.041Z,52.42
2022-08-23T08:33:02.195Z,51.62
2022-08-23T08:34:02.075Z,51.82
2022-08-23T08:35:02.125Z,51.79
2022-08-23T08:36:03.484Z,52.00
2022-08-23T08:37:02.153Z,51.40
2022-08-23T08:38:02.181Z,51.70
2022-08-23T08:39:02.226Z,51.10
2022-08-23T08:40:02.313Z,51.59
2022-08-23T08:41:02.287Z,50.90
2022-08-23T08:42:04.362Z,50.70
2022-08-23T08:43:02.512Z,50.50
2022-08-23T08:44:02.357Z,51.50
2022-08-23T08:45:01.371Z,52.19
2022-08-23T08:46:01.427Z,50.68
2022-08-23T08:47:01.402Z,51.07
2022-08-23T08:48:01.589Z,51.77
2022-08-23T08:49:01.449Z,50.68
2022-08-23T08:50:01.459Z,51.37
2022-08-23T08:51:01.470Z,50.48
2022-08-23T08:52:01.543Z,50.27
2022-08-23T08:53:01.503Z,51.27
2022-08-23T08:54:01.531Z,51.75
2022-08-23T08:55:01.520Z,50.75
2022-08-23T08:56:01.530Z,50.95
2022-08-23T08:57:01.556Z,50.52
2022-08-23T08:58:01.725Z,50.03
2022-08-23T08:59:01.564Z,50.13
2022-08-23T09:00:01.594Z,50.03
2022-08-23T09:01:01.614Z,49.93
2022-08-23T09:02:01.648Z,50.20
2022-08-23T09:03:01.710Z,50.01
2022-08-23T09:04:01.633Z,50.20
2022-08-23T09:05:01.637Z,49.41
2022-08-23T09:06:01.609Z,49.11
2022-08-23T09:07:01.771Z,50.01
2022-08-23T09:08:01.730Z,50.50
2022-08-23T09:09:02.187Z,50.20
2022-08-23T09:10:01.563Z,50.50
2022-08-23T09:11:01.547Z,49.78
2022-08-23T09:12:01.537Z,49.08
2022-08-23T09:13:01.545Z,49.49
2022-08-23T09:14:01.491Z,48.77
2022-08-23T09:15:01.665Z,48.57
2022-08-23T09:16:01.480Z,48.86
2022-08-23T09:17:01.449Z,48.17
2022-08-23T09:18:01.648Z,47.67
2022-08-23T09:19:01.443Z,47.47
2022-08-23T09:20:01.404Z,47.47
2022-08-23T09:21:01.385Z,47.87
2022-08-23T09:22:01.350Z,47.97
2022-08-23T09:23:01.349Z,48.96
2022-08-23T09:24:01.468Z,48.96
2022-08-23T09:25:01.335Z,48.65
2022-08-23T09:26:03.873Z,48.54
2022-08-23T09:27:01.297Z,49.14
2022-08-23T09:28:01.407Z,48.05
2022-08-23T09:29:01.267Z,48.25
2022-08-23T09:30:01.269Z,48.54
2022-08-23T09:31:01.304Z,47.85
2022-08-23T09:32:01.248Z,47.95
2022-08-23T09:33:01.303Z,48.02
2022-08-23T09:34:01.231Z,48.13
2022-08-23T09:35:01.208Z,48.02
2022-08-23T09:36:02.141Z,48.62
2022-08-23T09:37:01.203Z,47.92
2022-08-23T09:38:01.370Z,47.53
2022-08-23T09:39:01.171Z,46.73
2022-08-23T09:40:01.178Z,47.63
2022-08-23T09:41:01.150Z,45.45
2022-08-23T09:42:01.154Z,46.24
2022-08-23T09:43:01.172Z,45.74
2022-08-23T09:44:01.131Z,45.25
2022-08-23T09:45:01.162Z,44.13
2022-08-23T09:46:01.142Z,44.53
2022-08-23T09:47:01.061Z,46.02
2022-08-23T09:48:01.221Z,45.60
2022-08-23T09:49:01.261Z,45.20
2022-08-23T09:50:01.001Z,45.00
2022-08-23T09:51:01.137Z,44.60
2022-08-23T09:52:00.984Z,45.00
2022-08-23T09:53:03.903Z,44.90
2022-08-23T09:54:00.935Z,45.57
2022-08-23T09:55:00.965Z,45.57
2022-08-23T09:56:00.914Z,45.28
2022-08-23T09:57:00.889Z,45.36
2022-08-23T09:58:00.846Z,45.26
2022-08-23T09:59:00.815Z,45.04
2022-08-23T10:00:00.779Z,44.84
2022-08-23T10:01:00.804Z,43.95
2022-08-23T10:02:00.795Z,43.35
2022-08-23T10:03:00.868Z,43.48
2022-08-23T10:04:00.715Z,43.87
2022-08-23T10:05:00.786Z,43.77
2022-08-23T10:06:01.623Z,43.87
2022-08-23T10:07:00.678Z,44.17
2022-08-23T10:08:00.649Z,44.46
2022-08-23T10:09:00.629Z,45.04
2022-08-23T10:10:00.627Z,44.15
2022-08-23T10:11:00.653Z,43.55
2022-08-23T10:12:00.608Z,43.85
2022-08-23T10:13:00.721Z,43.95
2022-08-23T10:14:00.567Z,43.55
2022-08-23T10:15:00.531Z,43.06
2022-08-23T10:16:00.576Z,43.55
2022-08-23T10:17:00.482Z,43.33
2022-08-23T10:18:00.729Z,42.84
2022-08-23T10:19:00.451Z,43.04
2022-08-23T10:20:00.449Z,43.02
2022-08-23T10:21:00.401Z,42.82
2022-08-23T10:22:00.371Z,43.31
2022-08-23T10:23:01.381Z,41.73
2022-08-23T10:24:00.357Z,43.61
2022-08-23T10:25:00.372Z,43.91
2022-08-23T10:26:00.332Z,42.22
2022-08-23T10:27:00.296Z,42.22
2022-08-23T10:28:00.524Z,42.13
2022-08-23T10:29:00.279Z,42.52
2022-08-23T10:30:00.295Z,41.24
2022-08-23T10:31:00.396Z,40.55
2022-08-23T10:32:01.203Z,41.14
2022-08-23T10:33:00.238Z,41.65
2022-08-23T10:34:00.224Z,43.51
2022-08-23T10:35:00.212Z,42.32
2022-08-23T10:36:00.184Z,41.04
2022-08-23T10:37:00.186Z,40.94
2022-08-23T10:38:00.377Z,40.92
2022-08-23T10:39:00.113Z,41.81
2022-08-23T10:40:03.727Z,41.31
2022-08-23T10:41:00.098Z,40.11
2022-08-23T10:42:00.086Z,41.00
2022-08-23T10:43:00.075Z,39.42
2022-08-23T10:44:00.046Z,39.91
2022-08-23T10:45:00.027Z,39.79
2022-08-23T10:46:00.687Z,40.09
2022-08-23T10:46:59.954Z,39.40
2022-08-23T10:48:00.080Z,39.89
2022-08-23T10:48:59.937Z,39.89
2022-08-23T10:49:59.867Z,39.28
2022-08-23T10:50:59.847Z,39.28
2022-08-23T10:51:59.848Z,37.90
2022-08-23T10:52:59.822Z,38.79
2022-08-23T10:54:00.002Z,39.65
2022-08-23T10:54:59.858Z,38.57
2022-08-23T10:55:59.793Z,38.95
2022-08-23T10:56:59.770Z,39.04
2022-08-23T10:57:59.877Z,40.11
2022-08-23T10:58:59.759Z,39.52
2022-08-23T10:59:59.764Z,38.32
2022-08-23T11:00:59.851Z,38.02
2022-08-23T11:01:59.739Z,37.91
2022-08-23T11:02:59.764Z,38.49
2022-08-23T11:03:59.644Z,38.10
2022-08-23T11:04:59.640Z,38.20
2022-08-23T11:05:59.607Z,37.22
2022-08-23T11:06:59.591Z,36.92
2022-08-23T11:07:59.597Z,38.10
2022-08-23T11:08:59.531Z,38.60
2022-08-23T11:09:59.504Z,38.49
2022-08-23T11:11:00.495Z,38.01
2022-08-23T11:11:59.456Z,38.10
2022-08-23T11:12:59.474Z,37.12
2022-08-23T11:13:59.423Z,37.69
2022-08-23T11:14:59.405Z,37.79
2022-08-23T11:15:59.441Z,37.79
2022-08-23T11:16:59.365Z,37.49
2022-08-23T11:18:00.607Z,37.02
2022-08-23T11:18:59.340Z,36.72
2022-08-23T11:19:59.325Z,36.82
2022-08-23T11:21:00.332Z,37.04
2022-08-23T11:22:00.319Z,37.14
2022-08-23T11:23:00.277Z,38.02
2022-08-23T11:24:00.269Z,37.53
2022-08-23T11:25:00.245Z,36.94
2022-08-23T11:26:00.199Z,37.32
2022-08-23T11:27:05.358Z,37.81
2022-08-23T11:28:01.202Z,37.71
2022-08-23T11:29:00.158Z,38.20
2022-08-23T11:30:00.169Z,38.28
2022-08-23T11:31:00.207Z,36.59
2022-08-23T11:32:00.090Z,37.08
2022-08-23T11:33:00.058Z,36.88
2022-08-23T11:34:00.046Z,37.65
2022-08-23T11:35:00.020Z,38.64
2022-08-23T11:36:01.073Z,36.46
2022-08-23T11:36:59.957Z,35.30
2022-08-23T11:38:04.095Z,35.88
2022-08-23T11:39:00.964Z,36.36
2022-08-23T11:39:59.940Z,36.44
2022-08-23T11:40:59.842Z,35.26
2022-08-23T11:41:59.831Z,34.75
2022-08-23T11:42:59.763Z,33.87
2022-08-23T11:43:59.726Z,33.77
2022-08-23T11:44:59.694Z,34.85
2022-08-23T11:45:59.682Z,35.64
2022-08-23T11:46:59.638Z,36.91
2022-08-23T11:47:59.716Z,36.40
2022-08-23T11:48:59.567Z,36.01
2022-08-23T11:49:59.543Z,36.32
2022-08-23T11:50:59.612Z,36.32
2022-08-23T11:51:59.487Z,35.24
2022-08-23T11:52:59.463Z,35.83
2022-08-23T11:53:59.445Z,36.15
2022-08-23T11:54:59.394Z,35.87
2022-08-23T11:55:59.335Z,35.67
2022-08-23T11:56:59.275Z,35.88
2022-08-23T11:57:59.227Z,36.30
2022-08-23T11:58:59.205Z,35.61
2022-08-23T11:59:59.207Z,36.20
2022-08-23T12:00:59.127Z,36.40
2022-08-23T12:01:59.109Z,36.49
2022-08-23T12:02:59.138Z,36.20
2022-08-23T12:03:59.203Z,36.59
2022-08-23T12:04:59.028Z,36.40
2022-08-23T12:05:59.061Z,36.69
2022-08-23T12:06:58.991Z,36.79
2022-08-23T12:08:00.066Z,36.59
2022-08-23T12:08:58.931Z,36.00
2022-08-23T12:09:58.912Z,35.80
2022-08-23T12:10:58.867Z,36.00
2022-08-23T12:11:58.877Z,36.79
2022-08-23T12:12:58.821Z,36.40
2022-08-23T12:13:58.821Z,36.10
2022-08-23T12:14:58.789Z,35.39
2022-08-23T12:15:58.799Z,35.10
2022-08-23T12:16:58.731Z,35.00
2022-08-23T12:17:58.740Z,36.38
2022-08-23T12:18:58.682Z,36.18
2022-08-23T12:19:58.721Z,37.54
2022-08-23T12:20:58.663Z,35.87
2022-08-23T12:21:58.647Z,35.06
2022-08-23T12:22:58.641Z,35.36
2022-08-23T12:23:58.636Z,35.55
2022-08-23T12:24:58.574Z,35.34
2022-08-23T12:25:58.552Z,33.77
2022-08-23T12:26:58.551Z,34.75
2022-08-23T12:27:58.544Z,35.14
2022-08-23T12:28:58.506Z,34.75
2022-08-23T12:29:58.507Z,34.26
2022-08-23T12:30:58.470Z,34.26
2022-08-23T12:31:59.439Z,34.36
2022-08-23T12:32:59.386Z,33.89
2022-08-23T12:33:59.349Z,34.18
2022-08-23T12:34:59.327Z,35.44
2022-08-23T12:35:59.259Z,34.85
2022-08-23T12:36:59.228Z,35.13
2022-08-23T12:37:59.197Z,33.28
2022-08-23T12:38:59.164Z,34.16
2022-08-23T12:39:59.208Z,33.87
2022-08-23T12:40:59.194Z,34.15
2022-08-23T12:41:59.124Z,35.23
2022-08-23T12:42:59.107Z,33.87
2022-08-23T12:43:59.030Z,34.06
2022-08-23T12:44:59.947Z,34.77
2022-08-23T12:45:59.006Z,34.97
2022-08-23T12:46:58.979Z,34.95
2022-08-23T12:48:00.856Z,35.44
2022-08-23T12:48:58.825Z,34.26
2022-08-23T12:49:58.784Z,34.46
2022-08-23T12:50:58.752Z,34.74
2022-08-23T12:51:58.702Z,34.64
2022-08-23T12:52:58.787Z,33.64